sensor_id;sensor_type;location;lat;lon;timestamp;temperature;humidity
66920;DHT22;53831;52.090;17.026;2023-08-06T00:00:12;15.00;99.90
66920;DHT22;53831;52.090;17.026;2023-08-06T00:01:15;14.90;99.90
66920;DHT22;53831;52.090;17.026;2023-08-06T00:02:16;15.00;99.90
66920;DHT22;53831;52.090;17.026;2023-08-06T00:03:17;15.00;99.90
66920;DHT22;53831;52.090;17.026;2023-08-06T00:04:17;14.90;99.90
66920;DHT22;53831;52.090;17.026;2023-08-06T00:05:18;14.90;99.90
66920;DHT22;53831;52.090;17.026;2023-08-06T00:06:21;14.90;99.90
66920;DHT22;53831;52.090;17.026;2023-08-06T00:07:21;15.00;99.90
66920;DHT22;53831;52.090;17.026;2023-08-06T00:08:22;14.90;99.90
66920;DHT22;53831;52.090;17.026;2023-08-06T00:09:23;14.90;99.90
66920;DHT22;53831;52.090;17.026;2023-08-06T00:10:23;14.90;99.90
66920;DHT22;53831;52.090;17.026;2023-08-06T00:11:24;14.90;99.90
66920;DHT22;53831;52.090;17.026;2023-08-06T00:12:25;14.90;99.90
66920;DHT22;53831;52.090;17.026;2023-08-06T00:13:25;14.90;99.90
66920;DHT22;53831;52.090;17.026;2023-08-06T00:14:26;14.90;99.90
66920;DHT22;53831;52.090;17.026;2023-08-06T00:15:26;14.90;99.90
66920;DHT22;53831;52.090;17.026;2023-08-06T00:16:27;14.90;99.90
66920;DHT22;53831;52.090;17.026;2023-08-06T00:17:28;14.90;99.90
66920;DHT22;53831;52.090;17.026;2023-08-06T00:18:28;14.90;99.90
66920;DHT22;53831;52.090;17.026;2023-08-06T00:19:29;14.90;99.90
66920;DHT22;53831;52.090;17.026;2023-08-06T00:20:30;14.90;99.90
66920;DHT22;53831;52.090;17.026;2023-08-06T00:21:30;14.90;99.90
66920;DHT22;53831;52.090;17.026;2023-08-06T00:22:35;14.90;99.90
66920;DHT22;53831;52.090;17.026;2023-08-06T00:23:36;14.90;99.90
66920;DHT22;53831;52.090;17.026;2023-08-06T00:24:37;14.90;99.90
66920;DHT22;53831;52.090;17.026;2023-08-06T00:25:37;14.90;99.90
66920;DHT22;53831;52.090;17.026;2023-08-06T00:26:38;14.90;99.90
66920;DHT22;53831;52.090;17.026;2023-08-06T00:27:38;14.90;99.90
66920;DHT22;53831;52.090;17.026;2023-08-06T00:28:39;14.90;99.90
66920;DHT22;53831;52.090;17.026;2023-08-06T00:29:40;14.90;99.90
66920;DHT22;53831;52.090;17.026;2023-08-06T00:30:40;14.90;99.90
66920;DHT22;53831;52.090;17.026;2023-08-06T00:31:41;14.90;99.90
66920;DHT22;53831;52.090;17.026;2023-08-06T00:32:42;14.90;99.90
66920;DHT22;53831;52.090;17.026;2023-08-06T00:33:42;14.90;99.90
66920;DHT22;53831;52.090;17.026;2023-08-06T00:34:43;14.90;99.90
66920;DHT22;53831;52.090;17.026;2023-08-06T00:35:44;14.90;99.90
66920;DHT22;53831;52.090;17.026;2023-08-06T00:36:44;14.80;99.90
66920;DHT22;53831;52.090;17.026;2023-08-06T00:37:45;14.80;99.90
66920;DHT22;53831;52.090;17.026;2023-08-06T00:38:46;14.90;99.90
66920;DHT22;53831;52.090;17.026;2023-08-06T00:39:47;14.90;99.90
66920;DHT22;53831;52.090;17.026;2023-08-06T00:40:47;14.90;99.90
66920;DHT22;53831;52.090;17.026;2023-08-06T00:41:48;14.90;99.90
66920;DHT22;53831;52.090;17.026;2023-08-06T00:42:49;14.90;99.90
66920;DHT22;53831;52.090;17.026;2023-08-06T00:43:49;14.90;99.90
66920;DHT22;53831;52.090;17.026;2023-08-06T00:44:50;14.90;99.90
66920;DHT22;53831;52.090;17.026;2023-08-06T00:45:51;14.80;99.90
66920;DHT22;53831;52.090;17.026;2023-08-06T00:46:51;14.90;99.90
66920;DHT22;53831;52.090;17.026;2023-08-06T00:47:52;14.80;99.90
66920;DHT22;53831;52.090;17.026;2023-08-06T00:48:53;14.80;99.90
66920;DHT22;53831;52.090;17.026;2023-08-06T00:49:54;14.80;99.90
66920;DHT22;53831;52.090;17.026;2023-08-06T00:50:54;14.80;99.90
66920;DHT22;53831;52.090;17.026;2023-08-06T00:51:55;14.90;99.90
66920;DHT22;53831;52.090;17.026;2023-08-06T00:52:56;14.80;99.90
66920;DHT22;53831;52.090;17.026;2023-08-06T00:53:58;14.80;99.90
66920;DHT22;53831;52.090;17.026;2023-08-06T00:54:59;14.80;99.90
66920;DHT22;53831;52.090;17.026;2023-08-06T00:55:59;14.80;99.90
66920;DHT22;53831;52.090;17.026;2023-08-06T00:57:00;14.80;99.90
66920;DHT22;53831;52.090;17.026;2023-08-06T00:58:01;14.80;99.90
66920;DHT22;53831;52.090;17.026;2023-08-06T00:59:04;14.80;99.90
66920;DHT22;53831;52.090;17.026;2023-08-06T01:00:05;14.80;99.90
66920;DHT22;53831;52.090;17.026;2023-08-06T01:01:07;14.80;99.90
66920;DHT22;53831;52.090;17.026;2023-08-06T01:02:07;14.80;99.90
66920;DHT22;53831;52.090;17.026;2023-08-06T01:03:08;14.80;99.90
66920;DHT22;53831;52.090;17.026;2023-08-06T01:06:23;14.70;99.90
66920;DHT22;53831;52.090;17.026;2023-08-06T01:07:48;14.80;99.90
66920;DHT22;53831;52.090;17.026;2023-08-06T01:09:07;14.80;99.90
66920;DHT22;53831;52.090;17.026;2023-08-06T01:13:08;14.70;99.90
66920;DHT22;53831;52.090;17.026;2023-08-06T01:15:41;14.70;99.90
66920;DHT22;53831;52.090;17.026;2023-08-06T01:16:46;14.70;99.90
66920;DHT22;53831;52.090;17.026;2023-08-06T01:17:47;14.70;99.90
66920;DHT22;53831;52.090;17.026;2023-08-06T01:18:48;14.70;99.90
66920;DHT22;53831;52.090;17.026;2023-08-06T01:19:52;14.70;99.90
66920;DHT22;53831;52.090;17.026;2023-08-06T01:20:53;14.70;99.90
66920;DHT22;53831;52.090;17.026;2023-08-06T01:21:54;14.70;99.90
66920;DHT22;53831;52.090;17.026;2023-08-06T01:22:54;14.70;99.90
66920;DHT22;53831;52.090;17.026;2023-08-06T01:23:55;14.70;99.90
66920;DHT22;53831;52.090;17.026;2023-08-06T01:24:56;14.70;99.90
66920;DHT22;53831;52.090;17.026;2023-08-06T01:26:02;14.70;99.90
66920;DHT22;53831;52.090;17.026;2023-08-06T01:27:14;14.70;99.90
66920;DHT22;53831;52.090;17.026;2023-08-06T01:29:56;14.70;99.90
66920;DHT22;53831;52.090;17.026;2023-08-06T01:31:07;14.70;99.90
66920;DHT22;53831;52.090;17.026;2023-08-06T01:32:16;14.70;99.90
66920;DHT22;53831;52.090;17.026;2023-08-06T01:33:19;14.70;99.90
66920;DHT22;53831;52.090;17.026;2023-08-06T01:34:23;14.70;99.90
66920;DHT22;53831;52.090;17.026;2023-08-06T01:35:25;14.70;99.90
66920;DHT22;53831;52.090;17.026;2023-08-06T01:36:28;14.70;99.90
66920;DHT22;53831;52.090;17.026;2023-08-06T01:37:28;14.70;99.90
66920;DHT22;53831;52.090;17.026;2023-08-06T01:38:30;14.70;99.90
66920;DHT22;53831;52.090;17.026;2023-08-06T01:39:34;14.70;99.90
66920;DHT22;53831;52.090;17.026;2023-08-06T01:40:37;14.70;99.90
66920;DHT22;53831;52.090;17.026;2023-08-06T01:41:38;14.70;99.90
66920;DHT22;53831;52.090;17.026;2023-08-06T01:42:38;14.70;99.90
66920;DHT22;53831;52.090;17.026;2023-08-06T01:43:39;14.60;99.90
66920;DHT22;53831;52.090;17.026;2023-08-06T01:44:40;14.70;99.90
66920;DHT22;53831;52.090;17.026;2023-08-06T01:45:41;14.70;99.90
66920;DHT22;53831;52.090;17.026;2023-08-06T01:46:42;14.70;99.90
66920;DHT22;53831;52.090;17.026;2023-08-06T01:47:42;14.70;99.90
66920;DHT22;53831;52.090;17.026;2023-08-06T01:48:43;14.70;99.90
66920;DHT22;53831;52.090;17.026;2023-08-06T01:49:44;14.70;99.90
66920;DHT22;53831;52.090;17.026;2023-08-06T01:50:45;14.70;99.90
66920;DHT22;53831;52.090;17.026;2023-08-06T01:51:45;14.70;99.90
66920;DHT22;53831;52.090;17.026;2023-08-06T01:52:46;14.70;99.90
66920;DHT22;53831;52.090;17.026;2023-08-06T01:53:46;14.70;99.90
66920;DHT22;53831;52.090;17.026;2023-08-06T01:54:47;14.70;99.90
66920;DHT22;53831;52.090;17.026;2023-08-06T01:55:50;14.70;99.90
66920;DHT22;53831;52.090;17.026;2023-08-06T01:56:51;14.70;99.90
66920;DHT22;53831;52.090;17.026;2023-08-06T01:57:52;14.70;99.90
66920;DHT22;53831;52.090;17.026;2023-08-06T01:58:52;14.70;99.90
66920;DHT22;53831;52.090;17.026;2023-08-06T01:59:53;14.70;99.90
66920;DHT22;53831;52.090;17.026;2023-08-06T02:00:54;14.70;99.90
66920;DHT22;53831;52.090;17.026;2023-08-06T02:01:54;14.70;99.90
66920;DHT22;53831;52.090;17.026;2023-08-06T02:02:55;14.70;99.90
66920;DHT22;53831;52.090;17.026;2023-08-06T02:03:55;14.70;99.90
66920;DHT22;53831;52.090;17.026;2023-08-06T02:04:56;14.70;99.90
66920;DHT22;53831;52.090;17.026;2023-08-06T02:05:58;14.70;99.90
66920;DHT22;53831;52.090;17.026;2023-08-06T02:06:59;14.70;99.90
66920;DHT22;53831;52.090;17.026;2023-08-06T02:07:59;14.80;99.90
66920;DHT22;53831;52.090;17.026;2023-08-06T02:09:00;14.80;99.90
66920;DHT22;53831;52.090;17.026;2023-08-06T02:10:01;14.80;99.90
66920;DHT22;53831;52.090;17.026;2023-08-06T02:11:01;14.70;99.90
66920;DHT22;53831;52.090;17.026;2023-08-06T02:12:05;14.70;99.90
66920;DHT22;53831;52.090;17.026;2023-08-06T02:13:06;14.70;99.90
66920;DHT22;53831;52.090;17.026;2023-08-06T02:14:06;14.70;99.90
66920;DHT22;53831;52.090;17.026;2023-08-06T02:15:07;14.70;99.90
66920;DHT22;53831;52.090;17.026;2023-08-06T02:16:08;14.70;99.90
66920;DHT22;53831;52.090;17.026;2023-08-06T02:17:10;14.70;99.90
66920;DHT22;53831;52.090;17.026;2023-08-06T02:18:10;14.70;99.90
66920;DHT22;53831;52.090;17.026;2023-08-06T02:19:11;14.70;99.90
66920;DHT22;53831;52.090;17.026;2023-08-06T02:20:12;14.70;99.90
66920;DHT22;53831;52.090;17.026;2023-08-06T02:21:12;14.70;99.90
66920;DHT22;53831;52.090;17.026;2023-08-06T02:22:13;14.70;99.90
66920;DHT22;53831;52.090;17.026;2023-08-06T02:23:13;14.70;99.90
66920;DHT22;53831;52.090;17.026;2023-08-06T02:24:14;14.70;99.90
66920;DHT22;53831;52.090;17.026;2023-08-06T02:25:15;14.70;99.90
66920;DHT22;53831;52.090;17.026;2023-08-06T02:26:17;14.70;99.90
66920;DHT22;53831;52.090;17.026;2023-08-06T02:27:17;14.70;99.90
66920;DHT22;53831;52.090;17.026;2023-08-06T02:28:18;14.70;99.90
66920;DHT22;53831;52.090;17.026;2023-08-06T02:29:19;14.70;99.90
66920;DHT22;53831;52.090;17.026;2023-08-06T02:30:19;14.80;99.90
66920;DHT22;53831;52.090;17.026;2023-08-06T02:31:20;14.70;99.90
66920;DHT22;53831;52.090;17.026;2023-08-06T02:32:21;14.80;99.90
66920;DHT22;53831;52.090;17.026;2023-08-06T02:33:21;14.70;99.90
66920;DHT22;53831;52.090;17.026;2023-08-06T02:34:22;14.70;99.90
66920;DHT22;53831;52.090;17.026;2023-08-06T02:35:23;14.70;99.90
66920;DHT22;53831;52.090;17.026;2023-08-06T02:36:23;14.80;99.90
66920;DHT22;53831;52.090;17.026;2023-08-06T02:37:24;14.80;99.90
66920;DHT22;53831;52.090;17.026;2023-08-06T02:38:25;14.80;99.90
66920;DHT22;53831;52.090;17.026;2023-08-06T02:39:26;14.80;99.90
66920;DHT22;53831;52.090;17.026;2023-08-06T02:40:26;14.80;99.90
66920;DHT22;53831;52.090;17.026;2023-08-06T02:41:27;14.80;99.90
66920;DHT22;53831;52.090;17.026;2023-08-06T02:42:28;14.80;99.90
66920;DHT22;53831;52.090;17.026;2023-08-06T02:43:28;14.80;99.90
66920;DHT22;53831;52.090;17.026;2023-08-06T02:44:29;14.80;99.90
66920;DHT22;53831;52.090;17.026;2023-08-06T02:45:30;14.80;99.90
66920;DHT22;53831;52.090;17.026;2023-08-06T02:46:30;14.80;99.90
66920;DHT22;53831;52.090;17.026;2023-08-06T02:47:32;14.80;99.90
66920;DHT22;53831;52.090;17.026;2023-08-06T02:48:33;14.80;99.90
66920;DHT22;53831;52.090;17.026;2023-08-06T02:49:33;14.80;99.90
66920;DHT22;53831;52.090;17.026;2023-08-06T02:50:38;14.80;99.90
66920;DHT22;53831;52.090;17.026;2023-08-06T02:51:39;14.80;99.90
66920;DHT22;53831;52.090;17.026;2023-08-06T02:52:40;14.80;99.90
66920;DHT22;53831;52.090;17.026;2023-08-06T02:53:41;14.80;99.90
66920;DHT22;53831;52.090;17.026;2023-08-06T02:54:43;14.80;99.90
66920;DHT22;53831;52.090;17.026;2023-08-06T02:55:46;14.80;99.90
66920;DHT22;53831;52.090;17.026;2023-08-06T02:56:53;14.80;99.90
66920;DHT22;53831;52.090;17.026;2023-08-06T02:58:00;14.80;99.90
66920;DHT22;53831;52.090;17.026;2023-08-06T02:59:04;14.80;99.90
66920;DHT22;53831;52.090;17.026;2023-08-06T03:00:25;14.80;99.90
66920;DHT22;53831;52.090;17.026;2023-08-06T03:01:26;14.80;99.90
66920;DHT22;53831;52.090;17.026;2023-08-06T03:02:30;14.80;99.90
66920;DHT22;53831;52.090;17.026;2023-08-06T03:03:57;14.80;99.90
66920;DHT22;53831;52.090;17.026;2023-08-06T03:05:03;14.80;99.90
66920;DHT22;53831;52.090;17.026;2023-08-06T03:06:07;14.80;99.90
66920;DHT22;53831;52.090;17.026;2023-08-06T03:07:18;14.80;99.90
66920;DHT22;53831;52.090;17.026;2023-08-06T03:08:26;14.80;99.90
66920;DHT22;53831;52.090;17.026;2023-08-06T03:09:27;14.80;99.90
66920;DHT22;53831;52.090;17.026;2023-08-06T03:10:27;14.80;99.90
66920;DHT22;53831;52.090;17.026;2023-08-06T03:11:30;14.80;99.90
66920;DHT22;53831;52.090;17.026;2023-08-06T03:12:35;14.80;99.90
66920;DHT22;53831;52.090;17.026;2023-08-06T03:13:36;14.80;99.90
66920;DHT22;53831;52.090;17.026;2023-08-06T03:14:37;14.80;99.90
66920;DHT22;53831;52.090;17.026;2023-08-06T03:15:39;14.80;99.90
66920;DHT22;53831;52.090;17.026;2023-08-06T03:16:42;14.80;99.90
66920;DHT22;53831;52.090;17.026;2023-08-06T03:17:43;14.80;99.90
66920;DHT22;53831;52.090;17.026;2023-08-06T03:18:45;14.80;99.90
66920;DHT22;53831;52.090;17.026;2023-08-06T03:19:46;14.70;99.90
66920;DHT22;53831;52.090;17.026;2023-08-06T03:20:47;14.80;99.90
66920;DHT22;53831;52.090;17.026;2023-08-06T03:21:48;14.70;99.90
66920;DHT22;53831;52.090;17.026;2023-08-06T03:22:49;14.70;99.90
66920;DHT22;53831;52.090;17.026;2023-08-06T03:23:50;14.70;99.90
66920;DHT22;53831;52.090;17.026;2023-08-06T03:24:53;14.70;99.90
66920;DHT22;53831;52.090;17.026;2023-08-06T03:26:02;14.70;99.90
66920;DHT22;53831;52.090;17.026;2023-08-06T03:27:05;14.70;99.90
66920;DHT22;53831;52.090;17.026;2023-08-06T03:28:06;14.70;99.90
66920;DHT22;53831;52.090;17.026;2023-08-06T03:29:07;14.70;99.90
66920;DHT22;53831;52.090;17.026;2023-08-06T03:30:08;14.70;99.90
66920;DHT22;53831;52.090;17.026;2023-08-06T03:31:10;14.70;99.90
66920;DHT22;53831;52.090;17.026;2023-08-06T03:32:14;14.70;99.90
66920;DHT22;53831;52.090;17.026;2023-08-06T03:33:15;14.70;99.90
66920;DHT22;53831;52.090;17.026;2023-08-06T03:34:17;14.70;99.90
66920;DHT22;53831;52.090;17.026;2023-08-06T03:35:19;14.70;99.90
66920;DHT22;53831;52.090;17.026;2023-08-06T03:36:19;14.70;99.90
66920;DHT22;53831;52.090;17.026;2023-08-06T03:37:21;14.70;99.90
66920;DHT22;53831;52.090;17.026;2023-08-06T03:38:21;14.70;99.90
66920;DHT22;53831;52.090;17.026;2023-08-06T03:39:23;14.70;99.90
66920;DHT22;53831;52.090;17.026;2023-08-06T03:40:24;14.70;99.90
66920;DHT22;53831;52.090;17.026;2023-08-06T03:41:24;14.70;99.90
66920;DHT22;53831;52.090;17.026;2023-08-06T03:42:25;14.70;99.90
66920;DHT22;53831;52.090;17.026;2023-08-06T03:43:26;14.70;99.90
66920;DHT22;53831;52.090;17.026;2023-08-06T03:44:27;14.70;99.90
66920;DHT22;53831;52.090;17.026;2023-08-06T03:45:29;14.70;99.90
66920;DHT22;53831;52.090;17.026;2023-08-06T03:46:29;14.70;99.90
66920;DHT22;53831;52.090;17.026;2023-08-06T03:47:34;14.70;99.90
66920;DHT22;53831;52.090;17.026;2023-08-06T03:48:35;14.80;99.90
66920;DHT22;53831;52.090;17.026;2023-08-06T03:49:36;14.70;99.90
66920;DHT22;53831;52.090;17.026;2023-08-06T03:50:37;14.70;99.90
66920;DHT22;53831;52.090;17.026;2023-08-06T03:51:39;14.70;99.90
66920;DHT22;53831;52.090;17.026;2023-08-06T03:52:40;14.70;99.90
66920;DHT22;53831;52.090;17.026;2023-08-06T03:53:40;14.70;99.90
66920;DHT22;53831;52.090;17.026;2023-08-06T03:54:41;14.70;99.90
66920;DHT22;53831;52.090;17.026;2023-08-06T03:55:43;14.80;99.90
66920;DHT22;53831;52.090;17.026;2023-08-06T03:56:44;14.70;99.90
66920;DHT22;53831;52.090;17.026;2023-08-06T03:57:44;14.70;99.90
66920;DHT22;53831;52.090;17.026;2023-08-06T03:58:45;14.70;99.90
66920;DHT22;53831;52.090;17.026;2023-08-06T03:59:47;14.80;99.90
66920;DHT22;53831;52.090;17.026;2023-08-06T04:00:47;14.70;99.90
66920;DHT22;53831;52.090;17.026;2023-08-06T04:01:48;14.80;99.90
66920;DHT22;53831;52.090;17.026;2023-08-06T04:02:48;14.80;99.90
66920;DHT22;53831;52.090;17.026;2023-08-06T04:03:49;14.80;99.90
66920;DHT22;53831;52.090;17.026;2023-08-06T04:04:50;14.80;99.90
66920;DHT22;53831;52.090;17.026;2023-08-06T04:05:54;14.70;99.90
66920;DHT22;53831;52.090;17.026;2023-08-06T04:06:55;14.80;99.90
66920;DHT22;53831;52.090;17.026;2023-08-06T04:07:56;14.70;99.90
66920;DHT22;53831;52.090;17.026;2023-08-06T04:08:57;14.80;99.90
66920;DHT22;53831;52.090;17.026;2023-08-06T04:09:58;14.70;99.90
66920;DHT22;53831;52.090;17.026;2023-08-06T04:11:00;14.80;99.90
66920;DHT22;53831;52.090;17.026;2023-08-06T04:12:00;14.80;99.90
66920;DHT22;53831;52.090;17.026;2023-08-06T04:13:04;14.70;99.90
66920;DHT22;53831;52.090;17.026;2023-08-06T04:14:05;14.80;99.90
66920;DHT22;53831;52.090;17.026;2023-08-06T04:15:06;14.80;99.90
66920;DHT22;53831;52.090;17.026;2023-08-06T04:16:07;14.80;99.90
66920;DHT22;53831;52.090;17.026;2023-08-06T04:17:07;14.80;99.90
66920;DHT22;53831;52.090;17.026;2023-08-06T04:18:08;14.80;99.90
66920;DHT22;53831;52.090;17.026;2023-08-06T04:19:09;14.80;99.90
66920;DHT22;53831;52.090;17.026;2023-08-06T04:20:09;14.70;99.90
66920;DHT22;53831;52.090;17.026;2023-08-06T04:21:10;14.80;99.90
66920;DHT22;53831;52.090;17.026;2023-08-06T04:22:11;14.80;99.90
66920;DHT22;53831;52.090;17.026;2023-08-06T04:23:11;14.80;99.90
66920;DHT22;53831;52.090;17.026;2023-08-06T04:24:12;14.70;99.90
66920;DHT22;53831;52.090;17.026;2023-08-06T04:25:13;14.70;99.90
66920;DHT22;53831;52.090;17.026;2023-08-06T04:26:13;14.80;99.90
66920;DHT22;53831;52.090;17.026;2023-08-06T04:27:15;14.80;99.90
66920;DHT22;53831;52.090;17.026;2023-08-06T04:28:17;14.70;99.90
66920;DHT22;53831;52.090;17.026;2023-08-06T04:29:18;14.70;99.90
66920;DHT22;53831;52.090;17.026;2023-08-06T04:30:18;14.70;99.90
66920;DHT22;53831;52.090;17.026;2023-08-06T04:31:19;14.70;99.90
66920;DHT22;53831;52.090;17.026;2023-08-06T04:32:20;14.80;99.90
66920;DHT22;53831;52.090;17.026;2023-08-06T04:33:23;14.70;99.90
66920;DHT22;53831;52.090;17.026;2023-08-06T04:34:23;14.80;99.90
66920;DHT22;53831;52.090;17.026;2023-08-06T04:35:24;14.80;99.90
66920;DHT22;53831;52.090;17.026;2023-08-06T04:36:25;14.70;99.90
66920;DHT22;53831;52.090;17.026;2023-08-06T04:37:26;14.70;99.90
66920;DHT22;53831;52.090;17.026;2023-08-06T04:38:27;14.70;99.90
66920;DHT22;53831;52.090;17.026;2023-08-06T04:39:28;14.70;99.90
66920;DHT22;53831;52.090;17.026;2023-08-06T04:40:29;14.70;99.90
66920;DHT22;53831;52.090;17.026;2023-08-06T04:41:30;14.70;99.90
66920;DHT22;53831;52.090;17.026;2023-08-06T04:42:30;14.70;99.90
66920;DHT22;53831;52.090;17.026;2023-08-06T04:43:31;14.70;99.90
66920;DHT22;53831;52.090;17.026;2023-08-06T04:44:32;14.60;99.90
66920;DHT22;53831;52.090;17.026;2023-08-06T04:45:32;14.60;99.90
66920;DHT22;53831;52.090;17.026;2023-08-06T04:46:33;14.60;99.90
66920;DHT22;53831;52.090;17.026;2023-08-06T04:47:34;14.60;99.90
66920;DHT22;53831;52.090;17.026;2023-08-06T04:48:34;14.60;99.90
66920;DHT22;53831;52.090;17.026;2023-08-06T04:49:35;14.60;99.90
66920;DHT22;53831;52.090;17.026;2023-08-06T04:50:35;14.60;99.90
66920;DHT22;53831;52.090;17.026;2023-08-06T04:51:36;14.60;99.90
66920;DHT22;53831;52.090;17.026;2023-08-06T04:52:37;14.60;99.90
66920;DHT22;53831;52.090;17.026;2023-08-06T04:53:38;14.60;99.90
66920;DHT22;53831;52.090;17.026;2023-08-06T04:54:38;14.60;99.90
66920;DHT22;53831;52.090;17.026;2023-08-06T04:55:39;14.60;99.90
66920;DHT22;53831;52.090;17.026;2023-08-06T04:56:40;14.60;99.90
66920;DHT22;53831;52.090;17.026;2023-08-06T04:57:40;14.60;99.90
66920;DHT22;53831;52.090;17.026;2023-08-06T04:58:41;14.60;99.90
66920;DHT22;53831;52.090;17.026;2023-08-06T04:59:42;14.50;99.90
66920;DHT22;53831;52.090;17.026;2023-08-06T05:00:42;14.50;99.90
66920;DHT22;53831;52.090;17.026;2023-08-06T05:01:43;14.50;99.90
66920;DHT22;53831;52.090;17.026;2023-08-06T05:02:43;14.50;99.90
66920;DHT22;53831;52.090;17.026;2023-08-06T05:03:44;14.50;99.90
66920;DHT22;53831;52.090;17.026;2023-08-06T05:04:45;14.50;99.90
66920;DHT22;53831;52.090;17.026;2023-08-06T05:05:46;14.50;99.90
66920;DHT22;53831;52.090;17.026;2023-08-06T05:06:47;14.50;99.90
66920;DHT22;53831;52.090;17.026;2023-08-06T05:07:48;14.50;99.90
66920;DHT22;53831;52.090;17.026;2023-08-06T05:08:49;14.50;99.90
66920;DHT22;53831;52.090;17.026;2023-08-06T05:09:50;14.50;99.90
66920;DHT22;53831;52.090;17.026;2023-08-06T05:10:51;14.50;99.90
66920;DHT22;53831;52.090;17.026;2023-08-06T05:11:51;14.50;99.90
66920;DHT22;53831;52.090;17.026;2023-08-06T05:12:52;14.50;99.90
66920;DHT22;53831;52.090;17.026;2023-08-06T05:13:53;14.50;99.90
66920;DHT22;53831;52.090;17.026;2023-08-06T05:14:54;14.50;99.90
66920;DHT22;53831;52.090;17.026;2023-08-06T05:15:54;14.50;99.90
66920;DHT22;53831;52.090;17.026;2023-08-06T05:16:55;14.50;99.90
66920;DHT22;53831;52.090;17.026;2023-08-06T05:17:55;14.50;99.90
66920;DHT22;53831;52.090;17.026;2023-08-06T05:18:56;14.50;99.90
66920;DHT22;53831;52.090;17.026;2023-08-06T05:19:57;14.50;99.90
66920;DHT22;53831;52.090;17.026;2023-08-06T05:20:57;14.50;99.90
66920;DHT22;53831;52.090;17.026;2023-08-06T05:21:58;14.50;99.90
66920;DHT22;53831;52.090;17.026;2023-08-06T05:22:59;14.50;99.90
66920;DHT22;53831;52.090;17.026;2023-08-06T05:23:59;14.50;99.90
66920;DHT22;53831;52.090;17.026;2023-08-06T05:25:00;14.50;99.90
66920;DHT22;53831;52.090;17.026;2023-08-06T05:26:01;14.50;99.90
66920;DHT22;53831;52.090;17.026;2023-08-06T05:27:01;14.50;99.90
66920;DHT22;53831;52.090;17.026;2023-08-06T05:28:02;14.50;99.90
66920;DHT22;53831;52.090;17.026;2023-08-06T05:29:03;14.50;99.90
66920;DHT22;53831;52.090;17.026;2023-08-06T05:30:04;14.50;99.90
66920;DHT22;53831;52.090;17.026;2023-08-06T05:31:05;14.40;99.90
66920;DHT22;53831;52.090;17.026;2023-08-06T05:32:06;14.50;99.90
66920;DHT22;53831;52.090;17.026;2023-08-06T05:33:07;14.40;99.90
66920;DHT22;53831;52.090;17.026;2023-08-06T05:34:08;14.50;99.90
66920;DHT22;53831;52.090;17.026;2023-08-06T05:35:09;14.50;99.90
66920;DHT22;53831;52.090;17.026;2023-08-06T05:36:09;14.40;99.90
66920;DHT22;53831;52.090;17.026;2023-08-06T05:37:10;14.40;99.90
66920;DHT22;53831;52.090;17.026;2023-08-06T05:38:11;14.40;99.90
66920;DHT22;53831;52.090;17.026;2023-08-06T05:39:11;14.40;99.90
66920;DHT22;53831;52.090;17.026;2023-08-06T05:40:12;14.40;99.90
66920;DHT22;53831;52.090;17.026;2023-08-06T05:41:13;14.40;99.90
66920;DHT22;53831;52.090;17.026;2023-08-06T05:42:14;14.40;99.90
66920;DHT22;53831;52.090;17.026;2023-08-06T05:43:14;14.40;99.90
66920;DHT22;53831;52.090;17.026;2023-08-06T05:44:15;14.40;99.90
66920;DHT22;53831;52.090;17.026;2023-08-06T05:45:16;14.40;99.90
66920;DHT22;53831;52.090;17.026;2023-08-06T05:46:16;14.40;99.90
66920;DHT22;53831;52.090;17.026;2023-08-06T05:47:17;14.40;99.90
66920;DHT22;53831;52.090;17.026;2023-08-06T05:48:18;14.40;99.90
66920;DHT22;53831;52.090;17.026;2023-08-06T05:49:18;14.40;99.90
66920;DHT22;53831;52.090;17.026;2023-08-06T05:50:19;14.40;99.90
66920;DHT22;53831;52.090;17.026;2023-08-06T05:51:20;14.40;99.90
66920;DHT22;53831;52.090;17.026;2023-08-06T05:52:20;14.40;99.90
66920;DHT22;53831;52.090;17.026;2023-08-06T05:53:21;14.40;99.90
66920;DHT22;53831;52.090;17.026;2023-08-06T05:54:22;14.40;99.90
66920;DHT22;53831;52.090;17.026;2023-08-06T05:55:22;14.40;99.90
66920;DHT22;53831;52.090;17.026;2023-08-06T05:56:23;14.30;99.90
66920;DHT22;53831;52.090;17.026;2023-08-06T05:57:24;14.30;99.90
66920;DHT22;53831;52.090;17.026;2023-08-06T05:58:24;14.30;99.90
66920;DHT22;53831;52.090;17.026;2023-08-06T05:59:26;14.30;99.90
66920;DHT22;53831;52.090;17.026;2023-08-06T06:00:27;14.30;99.90
66920;DHT22;53831;52.090;17.026;2023-08-06T06:01:28;14.30;99.90
66920;DHT22;53831;52.090;17.026;2023-08-06T06:02:28;14.30;99.90
66920;DHT22;53831;52.090;17.026;2023-08-06T06:03:29;14.30;99.90
66920;DHT22;53831;52.090;17.026;2023-08-06T06:04:29;14.30;99.90
66920;DHT22;53831;52.090;17.026;2023-08-06T06:05:30;14.30;99.90
66920;DHT22;53831;52.090;17.026;2023-08-06T06:06:31;14.30;99.90
66920;DHT22;53831;52.090;17.026;2023-08-06T06:07:31;14.30;99.90
66920;DHT22;53831;52.090;17.026;2023-08-06T06:08:32;14.30;99.90
66920;DHT22;53831;52.090;17.026;2023-08-06T06:09:34;14.30;99.90
66920;DHT22;53831;52.090;17.026;2023-08-06T06:10:35;14.30;99.90
66920;DHT22;53831;52.090;17.026;2023-08-06T06:11:35;14.20;99.90
66920;DHT22;53831;52.090;17.026;2023-08-06T06:12:37;14.20;99.90
66920;DHT22;53831;52.090;17.026;2023-08-06T06:13:39;14.20;99.90
66920;DHT22;53831;52.090;17.026;2023-08-06T06:14:39;14.20;99.90
66920;DHT22;53831;52.090;17.026;2023-08-06T06:15:40;14.20;99.90
66920;DHT22;53831;52.090;17.026;2023-08-06T06:16:41;14.20;99.90
66920;DHT22;53831;52.090;17.026;2023-08-06T06:17:41;14.20;99.90
66920;DHT22;53831;52.090;17.026;2023-08-06T06:18:42;14.20;99.90
66920;DHT22;53831;52.090;17.026;2023-08-06T06:19:43;14.20;99.90
66920;DHT22;53831;52.090;17.026;2023-08-06T06:20:43;14.20;99.90
66920;DHT22;53831;52.090;17.026;2023-08-06T06:21:44;14.20;99.90
66920;DHT22;53831;52.090;17.026;2023-08-06T06:22:44;14.20;99.90
66920;DHT22;53831;52.090;17.026;2023-08-06T06:23:45;14.20;99.90
66920;DHT22;53831;52.090;17.026;2023-08-06T06:24:46;14.20;99.90
66920;DHT22;53831;52.090;17.026;2023-08-06T06:25:47;14.20;99.90
66920;DHT22;53831;52.090;17.026;2023-08-06T06:26:49;14.20;99.90
66920;DHT22;53831;52.090;17.026;2023-08-06T06:27:49;14.20;99.90
66920;DHT22;53831;52.090;17.026;2023-08-06T06:28:50;14.20;99.90
66920;DHT22;53831;52.090;17.026;2023-08-06T06:29:51;14.20;99.90